Time;durP1;ratioP1;P1;durP2;ratioP2;P2;SDS_P1;SDS_P2;PMS_P1;PMS_P2;Temp;Humidity;BMP_temperature;BMP_pressure;BME280_temperature;BME280_humidity;BME280_pressure;Samples;Min_cycle;Max_cycle;Signal;HPM_P1;HPM_P2
2024/03/26 00:00:32;;;;;;;16.95;6.95;;;;;;;4.29;100.00;95573.59;5017113;28;20792;-77
2024/03/26 00:02:59;;;;;;;19.63;7.10;;;;;;;4.28;100.00;95571.25;5019882;28;20440;-77
2024/03/26 00:05:25;;;;;;;18.08;6.93;;;;;;;4.23;100.00;95574.59;5003250;28;20429;-77
2024/03/26 00:07:51;;;;;;;17.98;7.03;;;;;;;4.21;100.00;95568.06;5010248;28;20408;-77
2024/03/26 00:10:17;;;;;;;16.60;6.70;;;;;;;4.19;100.00;95564.91;5017599;28;20401;-76
2024/03/26 00:12:44;;;;;;;17.50;6.85;;;;;;;4.18;100.00;95571.19;5018023;28;20468;-77
2024/03/26 00:15:10;;;;;;;14.02;6.57;;;;;;;4.13;100.00;95565.94;5014193;28;20406;-77
2024/03/26 00:17:37;;;;;;;21.63;7.57;;;;;;;4.09;100.00;95564.84;5001737;28;20407;-77
2024/03/26 00:20:04;;;;;;;16.90;7.25;;;;;;;4.11;100.00;95562.78;5022529;28;20483;-77
2024/03/26 00:22:30;;;;;;;19.48;7.38;;;;;;;4.05;100.00;95564.59;5016595;28;20497;-77
2024/03/26 00:24:56;;;;;;;17.27;7.20;;;;;;;4.13;100.00;95566.72;4996799;28;20477;-77
2024/03/26 00:27:22;;;;;;;22.08;7.50;;;;;;;4.08;100.00;95569.28;5012192;28;20537;-77
2024/03/26 00:29:49;;;;;;;16.00;6.88;;;;;;;3.99;100.00;95568.19;4998212;28;20413;-78
2024/03/26 00:32:15;;;;;;;14.23;7.15;;;;;;;3.99;100.00;95554.31;5011444;28;20878;-77
2024/03/26 00:34:42;;;;;;;19.58;7.65;;;;;;;3.97;100.00;95564.28;5016719;28;20762;-78
2024/03/26 00:37:08;;;;;;;18.15;6.93;;;;;;;3.91;100.00;95552.97;5003962;28;20435;-78
2024/03/26 00:39:34;;;;;;;18.83;7.32;;;;;;;3.86;100.00;95555.56;5003776;28;20827;-78
2024/03/26 00:42:01;;;;;;;19.35;7.65;;;;;;;3.85;100.00;95552.16;4995802;28;20434;-78
2024/03/26 00:44:28;;;;;;;16.33;6.95;;;;;;;3.79;100.00;95557.63;4995527;28;20406;-78
2024/03/26 00:46:54;;;;;;;16.63;6.93;;;;;;;3.77;100.00;95549.22;5016152;28;20463;-78
2024/03/26 00:49:20;;;;;;;15.75;6.95;;;;;;;3.75;100.00;95546.09;5001429;28;20485;-77
2024/03/26 00:51:48;;;;;;;14.90;6.72;;;;;;;3.77;100.00;95536.13;5002743;28;20404;-78
2024/03/26 00:54:14;;;;;;;18.83;7.38;;;;;;;3.75;100.00;95539.03;4995626;28;20498;-78
2024/03/26 00:56:41;;;;;;;14.20;6.63;;;;;;;3.73;100.00;95533.25;4994093;28;20407;-78
2024/03/26 00:59:08;;;;;;;13.57;6.75;;;;;;;3.65;100.00;95514.63;4996044;28;20406;-77
2024/03/26 01:01:34;;;;;;;17.25;6.70;;;;;;;3.67;100.00;95508.09;4996580;28;20398;-78
2024/03/26 01:04:00;;;;;;;19.20;8.10;;;;;;;3.64;100.00;95513.03;4993992;28;20959;-78
2024/03/26 01:06:26;;;;;;;14.77;6.85;;;;;;;3.55;100.00;95501.47;4993003;28;20422;-78
2024/03/26 01:08:54;;;;;;;13.07;6.15;;;;;;;3.56;100.00;95495.22;4993805;28;20439;-77
2024/03/26 01:11:20;;;;;;;21.15;7.82;;;;;;;3.47;100.00;95493.06;4993351;28;20480;-78
2024/03/26 01:13:46;;;;;;;16.20;7.35;;;;;;;3.42;100.00;95493.03;5011216;28;20408;-77
2024/03/26 01:16:12;;;;;;;20.75;7.70;;;;;;;3.33;100.00;95488.53;5012406;28;20409;-78
2024/03/26 01:18:38;;;;;;;15.83;7.10;;;;;;;3.24;100.00;95484.78;4995653;28;20497;-78
2024/03/26 01:21:04;;;;;;;16.77;7.97;;;;;;;3.13;100.00;95502.25;5005346;28;20459;-77
2024/03/26 01:23:31;;;;;;;14.73;7.57;;;;;;;3.13;100.00;95499.63;5012560;28;20487;-77
2024/03/26 01:25:58;;;;;;;21.52;8.07;;;;;;;3.02;100.00;95500.59;5009292;28;20468;-77
2024/03/26 01:28:24;;;;;;;20.30;8.83;;;;;;;2.98;100.00;95509.97;4993364;28;20442;-77
2024/03/26 01:30:50;;;;;;;18.25;7.97;;;;;;;2.95;100.00;95505.22;5000330;28;20412;-77
2024/03/26 01:33:16;;;;;;;17.98;8.20;;;;;;;2.91;100.00;95498.94;5012513;28;20913;-77
2024/03/26 01:35:51;;;;;;;17.42;8.20;;;;;;;3.00;100.00;95503.47;5011501;28;20813;-77
2024/03/26 01:38:17;;;;;;;20.27;8.02;;;;;;;2.94;100.00;95508.88;5006100;28;20801;-76
2024/03/26 01:40:43;;;;;;;16.92;7.82;;;;;;;3.02;100.00;95508.41;5009721;28;20786;-78
2024/03/26 01:43:11;;;;;;;16.17;7.90;;;;;;;2.94;100.00;95495.81;4998412;28;20883;-77
2024/03/26 01:45:37;;;;;;;16.52;7.18;;;;;;;2.89;100.00;95491.34;5000789;28;20964;-77
2024/03/26 01:48:04;;;;;;;17.25;7.82;;;;;;;2.89;100.00;95490.56;5011927;28;20432;-77
2024/03/26 01:50:30;;;;;;;14.88;7.28;;;;;;;2.82;100.00;95476.91;5011341;28;20436;-77
2024/03/26 01:52:57;;;;;;;14.32;6.88;;;;;;;2.82;100.00;95479.50;4993585;28;20406;-77
2024/03/26 01:55:24;;;;;;;15.48;7.35;;;;;;;2.81;100.00;95475.31;5002157;28;20406;-77
2024/03/26 01:57:51;;;;;;;19.73;7.78;;;;;;;2.74;100.00;95472.91;4991705;28;20403;-77
2024/03/26 02:00:23;;;;;;;20.13;7.72;;;;;;;2.74;100.00;95475.53;4992110;28;20402;-77
2024/03/26 02:02:49;;;;;;;18.77;8.27;;;;;;;2.77;100.00;95469.03;5010839;28;20542;-77
2024/03/26 02:05:15;;;;;;;20.50;8.20;;;;;;;2.71;100.00;95468.19;5011498;28;20945;-77
2024/03/26 02:07:41;;;;;;;21.83;8.45;;;;;;;2.66;100.00;95462.91;5014292;28;20861;-77
2024/03/26 02:10:08;;;;;;;19.88;8.30;;;;;;;2.63;100.00;95461.59;5015191;28;20447;-77
2024/03/26 02:12:34;;;;;;;20.27;8.73;;;;;;;2.58;100.00;95458.94;5007113;28;20410;-77
2024/03/26 02:15:00;;;;;;;20.95;8.90;;;;;;;2.56;100.00;95458.38;5004864;28;20410;-77
2024/03/26 02:17:28;;;;;;;22.80;9.30;;;;;;;2.54;100.00;95455.25;4995595;28;20394;-77
2024/03/26 02:19:54;;;;;;;21.15;9.60;;;;;;;2.56;100.00;95450.56;5014533;28;20408;-77
2024/03/26 02:22:20;;;;;;;16.25;8.10;;;;;;;2.51;100.00;95447.13;5015522;28;20878;-77
2024/03/26 02:24:47;;;;;;;21.35;8.25;;;;;;;2.54;100.00;95444.81;5014854;28;20431;-78
2024/03/26 02:27:15;;;;;;;19.83;9.18;;;;;;;2.60;100.00;95448.25;5015031;28;20952;-77
2024/03/26 02:29:41;;;;;;;20.60;9.57;;;;;;;2.58;100.00;95445.09;5015187;28;20826;-77
2024/03/26 02:32:07;;;;;;;16.85;8.70;;;;;;;2.55;100.00;95443.78;5014773;28;20539;-78
2024/03/26 02:34:33;;;;;;;19.08;8.82;;;;;;;2.55;100.00;95438.56;5012026;28;20408;-77
2024/03/26 02:36:59;;;;;;;18.45;7.97;;;;;;;2.52;100.00;95427.81;5011442;28;20406;-77
2024/03/26 02:39:25;;;;;;;20.70;8.68;;;;;;;2.54;100.00;95431.75;5003427;28;20393;-77
2024/03/26 02:41:52;;;;;;;17.40;7.72;;;;;;;2.56;100.00;95431.47;5014856;28;20451;-77
2024/03/26 02:44:20;;;;;;;21.50;8.70;;;;;;;2.63;100.00;95437.31;5000810;28;20406;-78
2024/03/26 02:46:46;;;;;;;17.25;8.13;;;;;;;2.60;100.00;95433.38;4996803;28;20480;-77
2024/03/26 02:49:12;;;;;;;27.65;9.45;;;;;;;2.64;100.00;95444.88;5014558;28;20427;-77
2024/03/26 02:51:38;;;;;;;16.98;8.27;;;;;;;2.57;100.00;95441.69;5014535;28;20396;-77
2024/03/26 02:54:04;;;;;;;16.50;8.23;;;;;;;2.59;100.00;95439.63;4994682;28;20405;-77
2024/03/26 02:56:31;;;;;;;20.27;8.98;;;;;;;2.56;100.00;95439.31;4994923;28;20406;-77
2024/03/26 02:58:57;;;;;;;24.30;10.15;;;;;;;2.53;100.00;95429.38;4998543;28;20397;-78
2024/03/26 03:01:24;;;;;;;19.55;8.75;;;;;;;2.48;100.00;95426.75;5014314;28;20782;-78
2024/03/26 03:03:51;;;;;;;19.02;8.25;;;;;;;2.43;100.00;95418.84;5014448;28;20883;-77
2024/03/26 03:06:17;;;;;;;18.50;8.70;;;;;;;2.44;100.00;95423.03;5014765;28;20408;-76
2024/03/26 03:08:43;;;;;;;25.03;9.87;;;;;;;2.43;100.00;95424.06;5000795;28;20410;-78
2024/03/26 03:11:09;;;;;;;21.73;9.20;;;;;;;2.41;100.00;95426.13;5014541;28;20400;-78
2024/03/26 03:13:35;;;;;;;22.33;9.70;;;;;;;2.46;100.00;95420.97;4997603;28;20398;-78
2024/03/26 03:16:01;;;;;;;25.95;10.05;;;;;;;2.47;100.00;95428.56;5006714;28;20437;-78
2024/03/26 03:18:30;;;;;;;23.38;9.50;;;;;;;2.45;100.00;95414.94;5013654;28;20403;-77
2024/03/26 03:20:56;;;;;;;19.88;8.60;;;;;;;2.39;100.00;95407.31;4994465;28;20440;-78
2024/03/26 03:23:22;;;;;;;17.02;8.07;;;;;;;2.36;100.00;95406.00;5002660;28;20498;-77
2024/03/26 03:25:53;;;;;;;21.77;8.48;;;;;;;2.42;100.00;95407.59;5012639;28;20774;-78
2024/03/26 03:28:19;;;;;;;22.05;8.77;;;;;;;2.46;100.00;95407.91;5014041;28;20432;-78
2024/03/26 03:30:45;;;;;;;22.97;9.50;;;;;;;2.50;100.00;95398.53;5013990;28;20474;-78
2024/03/26 03:33:12;;;;;;;21.08;10.02;;;;;;;2.43;100.00;95401.34;5013903;28;20400;-77
2024/03/26 03:35:40;;;;;;;23.85;10.52;;;;;;;2.49;100.00;95404.78;4999257;28;20405;-78
2024/03/26 03:38:06;;;;;;;23.65;9.63;;;;;;;2.44;100.00;95408.16;5006922;28;20493;-78
2024/03/26 03:40:33;;;;;;;19.13;8.87;;;;;;;2.45;100.00;95398.50;4997434;28;20903;-78
2024/03/26 03:42:59;;;;;;;18.15;8.38;;;;;;;2.43;100.00;95393.53;4998143;28;20400;-78
2024/03/26 03:45:28;;;;;;;15.90;8.43;;;;;;;2.41;100.00;95395.56;5013201;28;20793;-77
2024/03/26 03:47:54;;;;;;;25.52;10.23;;;;;;;2.45;100.00;95396.69;5013762;28;20451;-76
2024/03/26 03:50:20;;;;;;;25.30;10.30;;;;;;;2.42;100.00;95391.94;5014982;28;20438;-76
2024/03/26 03:52:48;;;;;;;19.35;8.70;;;;;;;2.42;100.00;95385.94;5007047;28;20406;-77
2024/03/26 03:55:14;;;;;;;23.38;9.40;;;;;;;2.48;100.00;95392.78;5014615;28;21033;-77
2024/03/26 03:57:40;;;;;;;20.13;8.32;;;;;;;2.51;100.00;95389.66;5006192;28;20403;-76
2024/03/26 04:00:08;;;;;;;19.00;8.73;;;;;;;2.53;100.00;95387.59;4993846;28;20406;-76
2024/03/26 04:02:34;;;;;;;15.57;8.15;;;;;;;2.55;100.00;95383.72;5013369;28;20405;-77
2024/03/26 04:05:02;;;;;;;22.08;9.55;;;;;;;2.59;100.00;95384.00;5013429;28;20436;-76
2024/03/26 04:07:28;;;;;;;23.00;9.88;;;;;;;2.63;100.00;95379.84;5013009;28;20472;-76
2024/03/26 04:09:56;;;;;;;20.35;9.82;;;;;;;2.67;100.00;95373.88;5003590;28;20407;-76
2024/03/26 04:12:22;;;;;;;22.40;9.55;;;;;;;2.70;100.00;95369.97;4994295;28;20486;-77
2024/03/26 04:14:48;;;;;;;18.33;8.43;;;;;;;2.71;100.00;95371.53;5003724;28;20397;-77
2024/03/26 04:17:14;;;;;;;14.33;7.30;;;;;;;2.73;100.00;95362.41;4998986;28;20460;-78
2024/03/26 04:19:40;;;;;;;13.57;7.20;;;;;;;2.78;100.00;95373.94;5002703;28;20408;-77
2024/03/26 04:22:07;;;;;;;15.65;7.85;;;;;;;2.81;100.00;95365.59;5008245;28;20402;-77
2024/03/26 04:24:33;;;;;;;17.23;8.52;;;;;;;2.84;100.00;95370.31;4993410;28;20398;-77
2024/03/26 04:27:01;;;;;;;19.05;8.45;;;;;;;2.83;100.00;95374.75;4996629;28;20467;-76
2024/03/26 04:29:28;;;;;;;14.73;7.53;;;;;;;2.80;100.00;95364.81;5011985;28;20904;-77
2024/03/26 04:31:54;;;;;;;14.17;7.57;;;;;;;2.80;100.00;95371.84;5012439;28;20396;-77
2024/03/26 04:34:20;;;;;;;20.15;8.80;;;;;;;2.81;100.00;95368.22;5006010;28;20445;-77
2024/03/26 04:36:46;;;;;;;17.25;7.90;;;;;;;2.77;100.00;95365.31;4992803;28;20402;-76
2024/03/26 04:39:12;;;;;;;21.83;9.40;;;;;;;2.80;100.00;95370.03;4997828;28;20488;-77
2024/03/26 04:41:39;;;;;;;17.67;8.65;;;;;;;2.72;100.00;95373.09;4995200;28;20413;-77
2024/03/26 04:44:06;;;;;;;12.90;6.95;;;;;;;2.65;100.00;95373.31;4992587;28;20449;-77
2024/03/26 04:46:32;;;;;;;13.50;6.80;;;;;;;2.60;100.00;95367.28;5000245;28;20504;-76
2024/03/26 04:48:59;;;;;;;13.38;6.95;;;;;;;2.54;100.00;95361.25;4992845;28;20494;-77
2024/03/26 04:51:25;;;;;;;20.48;9.43;;;;;;;2.57;100.00;95365.16;4992884;28;20509;-77
2024/03/26 04:53:51;;;;;;;18.20;8.95;;;;;;;2.55;100.00;95356.81;4992578;28;20414;-77
2024/03/26 04:56:18;;;;;;;19.30;8.20;;;;;;;2.49;100.00;95361.19;4992510;28;20407;-77
2024/03/26 04:58:45;;;;;;;20.03;8.80;;;;;;;2.43;100.00;95379.69;5010452;28;20487;-77
2024/03/26 05:01:13;;;;;;;20.35;9.43;;;;;;;2.48;100.00;95377.88;5012823;28;20557;-77
2024/03/26 05:03:39;;;;;;;19.05;8.55;;;;;;;2.46;100.00;95389.63;5012538;28;20890;-76
2024/03/26 05:06:05;;;;;;;22.25;9.23;;;;;;;2.37;100.00;95371.03;5011892;28;20902;-76
2024/03/26 05:08:31;;;;;;;16.20;7.85;;;;;;;2.41;100.00;95366.06;5012311;28;20401;-76
2024/03/26 05:10:57;;;;;;;22.08;9.20;;;;;;;2.42;100.00;95380.72;5012401;28;20388;-76
2024/03/26 05:13:24;;;;;;;17.02;8.30;;;;;;;2.43;100.00;95366.63;5013356;28;20758;-76
2024/03/26 05:15:50;;;;;;;18.70;7.93;;;;;;;2.54;100.00;95365.69;5015779;28;20491;-76
2024/03/26 05:18:17;;;;;;;16.25;8.57;;;;;;;2.55;100.00;95362.81;5012794;28;20408;-76
2024/03/26 05:20:43;;;;;;;16.17;7.90;;;;;;;2.62;100.00;95360.78;5013680;28;20446;-76
2024/03/26 05:23:09;;;;;;;19.75;8.40;;;;;;;2.70;100.00;95359.53;5013419;28;20404;-76
2024/03/26 05:25:36;;;;;;;19.60;8.57;;;;;;;2.78;100.00;95359.06;5013704;28;20411;-76
2024/03/26 05:28:03;;;;;;;16.42;8.00;;;;;;;2.82;100.00;95364.56;5013942;28;20896;-77
2024/03/26 05:30:29;;;;;;;18.55;8.52;;;;;;;2.84;100.00;95354.66;4997800;28;20788;-77
2024/03/26 05:32:55;;;;;;;14.15;7.68;;;;;;;2.87;100.00;95357.53;4995825;28;20802;-77
2024/03/26 05:35:23;;;;;;;12.70;6.75;;;;;;;2.92;100.00;95354.97;5011895;28;20850;-76
2024/03/26 05:37:49;;;;;;;9.93;5.82;;;;;;;2.99;100.00;95355.53;5012852;28;20400;-75
2024/03/26 05:40:15;;;;;;;10.27;5.32;;;;;;;3.06;100.00;95350.09;5011806;28;20405;-76
2024/03/26 05:42:42;;;;;;;10.65;5.97;;;;;;;3.11;100.00;95347.47;5011615;28;20769;-76
2024/03/26 05:45:09;;;;;;;9.57;5.68;;;;;;;3.17;100.00;95345.69;5005026;28;20943;-76
2024/03/26 05:47:35;;;;;;;10.80;6.38;;;;;;;3.23;100.00;95352.53;5001222;28;20774;-76
2024/03/26 05:50:04;;;;;;;14.65;7.50;;;;;;;3.30;100.00;95348.63;5012283;28;20451;-76
2024/03/26 05:52:31;;;;;;;12.52;7.03;;;;;;;3.36;100.00;95352.06;5002155;28;20913;-76
2024/03/26 05:54:58;;;;;;;13.52;7.28;;;;;;;3.41;100.00;95352.84;4991710;28;20895;-76
2024/03/26 05:57:24;;;;;;;17.90;8.98;;;;;;;3.45;100.00;95351.31;4991758;28;20428;-76
2024/03/26 05:59:50;;;;;;;16.88;8.10;;;;;;;3.49;100.00;95348.97;4992593;28;20402;-76
2024/03/26 06:02:16;;;;;;;13.30;7.10;;;;;;;3.56;100.00;95352.13;4992202;28;20394;-76
2024/03/26 06:04:42;;;;;;;11.45;6.25;;;;;;;3.64;100.00;95348.22;4992202;28;20986;-76
2024/03/26 06:07:08;;;;;;;12.55;6.97;;;;;;;3.69;100.00;95350.84;4991809;28;20445;-76
2024/03/26 06:09:36;;;;;;;9.95;6.05;;;;;;;3.75;100.00;95352.47;4991809;28;20772;-75
2024/03/26 06:12:02;;;;;;;8.50;5.65;;;;;;;3.80;100.00;95345.41;4992354;28;20982;-75
2024/03/26 06:14:29;;;;;;;10.27;6.40;;;;;;;3.85;100.00;95342.78;5009646;28;20789;-76
2024/03/26 06:16:55;;;;;;;10.50;6.35;;;;;;;3.92;100.00;95333.91;4992590;28;20413;-76
2024/03/26 06:19:21;;;;;;;13.95;7.18;;;;;;;3.96;100.00;95332.34;4992284;28;20410;-76
2024/03/26 06:21:47;;;;;;;10.35;6.25;;;;;;;4.01;100.00;95327.13;5002263;28;20400;-76
2024/03/26 06:24:13;;;;;;;10.10;6.30;;;;;;;4.05;100.00;95326.34;5011546;28;20442;-77
2024/03/26 06:26:41;;;;;;;11.68;6.22;;;;;;;4.11;100.00;95316.66;5007197;28;20453;-76
2024/03/26 06:29:07;;;;;;;9.70;5.53;;;;;;;4.19;100.00;95309.09;5002337;28;20416;-77
2024/03/26 06:31:33;;;;;;;10.18;5.70;;;;;;;4.28;100.00;95317.97;5002545;28;20408;-77
2024/03/26 06:33:59;;;;;;;15.10;6.20;;;;;;;4.37;100.00;95314.84;5002796;28;20729;-76
2024/03/26 06:36:25;;;;;;;10.75;6.30;;;;;;;4.42;100.00;95313.03;5010314;28;20495;-77
2024/03/26 06:38:53;;;;;;;11.98;6.75;;;;;;;4.42;100.00;95320.88;4996365;28;20827;-77
2024/03/26 06:41:19;;;;;;;14.50;6.70;;;;;;;4.36;100.00;95314.03;4999270;28;20408;-76
2024/03/26 06:43:48;;;;;;;16.20;7.37;;;;;;;4.39;100.00;95315.38;4999852;28;20757;-77
2024/03/26 06:46:15;;;;;;;9.00;5.93;;;;;;;4.47;100.00;95310.38;5000071;28;20450;-77
2024/03/26 06:48:41;;;;;;;10.30;5.97;;;;;;;4.54;100.00;95307.50;5002796;28;20456;-77
2024/03/26 06:51:08;;;;;;;12.77;5.82;;;;;;;4.57;100.00;95315.63;5009175;28;20416;-77
2024/03/26 06:53:34;;;;;;;20.60;8.43;;;;;;;4.39;100.00;95313.53;5008878;28;20492;-77
2024/03/26 06:56:00;;;;;;;10.88;6.55;;;;;;;4.53;100.00;95303.31;5010203;28;20396;-78
2024/03/26 06:58:26;;;;;;;12.05;7.00;;;;;;;4.63;100.00;95311.16;5009509;28;20432;-77
2024/03/26 07:00:54;;;;;;;10.13;6.45;;;;;;;4.70;100.00;95305.66;5009873;28;20436;-78
2024/03/26 07:03:20;;;;;;;7.73;5.37;;;;;;;4.79;100.00;95302.22;5011690;28;20739;-77
2024/03/26 07:05:46;;;;;;;7.88;4.60;;;;;;;4.89;100.00;95298.78;5010731;28;20397;-79
2024/03/26 07:08:12;;;;;;;6.78;4.70;;;;;;;4.97;100.00;95293.00;5010741;28;20485;-79
2024/03/26 07:10:38;;;;;;;8.18;5.32;;;;;;;4.96;100.00;95283.59;5004702;28;20402;-76
2024/03/26 07:13:05;;;;;;;10.23;5.83;;;;;;;5.00;100.00;95274.13;5003552;28;20473;-75
2024/03/26 07:15:31;;;;;;;6.03;4.60;;;;;;;5.10;100.00;95266.22;5015773;28;21010;-75
2024/03/26 07:17:59;;;;;;;4.97;3.95;;;;;;;5.20;100.00;95268.00;5015513;28;20397;-75
2024/03/26 07:20:25;;;;;;;7.32;4.80;;;;;;;5.23;100.00;95257.78;5002757;28;20434;-76
2024/03/26 07:22:51;;;;;;;8.95;5.28;;;;;;;5.29;100.00;95254.06;5001382;28;20406;-76
2024/03/26 07:25:17;;;;;;;7.05;4.63;;;;;;;5.39;100.00;95264.53;5002255;28;20410;-76
2024/03/26 07:27:43;;;;;;;5.10;3.72;;;;;;;5.52;100.00;95271.03;5005134;28;20442;-75
2024/03/26 07:30:11;;;;;;;6.30;4.22;;;;;;;5.61;100.00;95277.28;5013568;28;20942;-76
2024/03/26 07:32:37;;;;;;;5.13;3.90;;;;;;;5.72;100.00;95275.38;5009727;28;20414;-76
2024/03/26 07:35:07;;;;;;;5.97;3.90;;;;;;;5.84;100.00;95270.59;5002311;28;20913;-77
2024/03/26 07:37:33;;;;;;;5.23;3.67;;;;;;;5.97;100.00;95279.72;5002868;28;20853;-76
2024/03/26 07:40:00;;;;;;;6.70;4.60;;;;;;;5.88;100.00;95273.47;5002396;28;20407;-76
2024/03/26 07:42:27;;;;;;;16.25;5.80;;;;;;;5.79;100.00;95273.22;4994315;28;20501;-76
2024/03/26 07:44:53;;;;;;;12.25;5.45;;;;;;;5.91;100.00;95278.19;5005302;28;20439;-77
2024/03/26 07:47:19;;;;;;;6.47;3.70;;;;;;;6.08;100.00;95271.50;5017926;28;20416;-76
2024/03/26 07:49:45;;;;;;;7.15;3.88;;;;;;;6.29;100.00;95273.97;5013465;28;20400;-76
2024/03/26 07:52:13;;;;;;;6.72;4.22;;;;;;;6.22;100.00;95272.44;5000712;28;20402;-75
2024/03/26 07:54:39;;;;;;;8.35;4.70;;;;;;;6.21;100.00;95264.81;4997162;28;20457;-75
2024/03/26 07:57:07;;;;;;;8.63;4.80;;;;;;;6.36;100.00;95271.81;4994281;28;20402;-75
2024/03/26 07:59:33;;;;;;;6.43;4.10;;;;;;;6.49;100.00;95265.91;4994165;28;20409;-75
2024/03/26 08:01:59;;;;;;;10.73;4.90;;;;;;;6.42;100.00;95268.84;4997944;28;20432;-75
2024/03/26 08:04:25;;;;;;;5.75;3.97;;;;;;;6.73;100.00;95256.22;4993610;28;20481;-75
2024/03/26 08:06:52;;;;;;;10.38;4.93;;;;;;;6.75;100.00;95266.47;5003426;28;20424;-75
2024/03/26 08:09:19;;;;;;;8.90;4.20;;;;;;;6.87;100.00;95264.22;5013354;28;20436;-75
2024/03/26 08:11:45;;;;;;;6.63;3.90;;;;;;;6.92;100.00;95262.31;5003182;28;20399;-75
2024/03/26 08:14:11;;;;;;;7.28;4.97;;;;;;;6.73;100.00;95268.56;4993630;28;20398;-75
2024/03/26 08:16:37;;;;;;;13.10;5.00;;;;;;;6.61;100.00;95269.72;4993769;28;20502;-76
2024/03/26 08:19:03;;;;;;;10.13;4.60;;;;;;;6.50;100.00;95270.88;4993406;28;20505;-76
2024/03/26 08:21:30;;;;;;;7.03;4.47;;;;;;;6.73;100.00;95263.31;4993515;28;20438;-76
2024/03/26 08:23:56;;;;;;;10.25;4.53;;;;;;;6.83;100.00;95273.75;5013248;28;20446;-76
2024/03/26 08:26:23;;;;;;;12.57;5.18;;;;;;;6.89;100.00;95268.16;5006261;28;20450;-77
2024/03/26 08:28:51;;;;;;;8.65;4.53;;;;;;;7.02;100.00;95271.94;4993158;28;20410;-76
2024/03/26 08:31:17;;;;;;;7.10;4.30;;;;;;;7.15;100.00;95271.25;5007593;28;20401;-77
2024/03/26 08:33:43;;;;;;;8.48;4.45;;;;;;;7.27;100.00;95266.41;5003308;28;20906;-77
2024/03/26 08:36:10;;;;;;;6.47;3.95;;;;;;;7.39;100.00;95272.03;5006766;28;20397;-75
2024/03/26 08:38:36;;;;;;;5.68;3.60;;;;;;;7.57;100.00;95267.09;4994585;28;20409;-75
2024/03/26 08:41:02;;;;;;;7.78;3.72;;;;;;;7.76;100.00;95273.91;5004097;28;20401;-76
2024/03/26 08:43:29;;;;;;;7.10;3.47;;;;;;;8.02;100.00;95277.00;4997372;28;20489;-76
2024/03/26 08:45:55;;;;;;;4.47;2.78;;;;;;;8.26;100.00;95262.94;5010172;28;20496;-78
2024/03/26 08:48:22;;;;;;;10.15;4.05;;;;;;;8.19;100.00;95262.53;4999210;28;20503;-76
2024/03/26 08:50:48;;;;;;;5.35;2.90;;;;;;;8.42;100.00;95251.13;5004037;28;20948;-76
2024/03/26 08:53:14;;;;;;;5.40;3.17;;;;;;;8.70;100.00;95242.19;4995055;28;20438;-76
2024/03/26 08:55:40;;;;;;;4.35;3.10;;;;;;;8.96;100.00;95241.69;4995339;28;20508;-75
2024/03/26 08:58:06;;;;;;;7.27;3.10;;;;;;;9.33;100.00;95238.84;4999377;28;20822;-75
2024/03/26 09:00:35;;;;;;;5.10;2.72;;;;;;;9.68;100.00;95240.78;4999214;28;20427;-75
2024/03/26 09:03:01;;;;;;;4.00;2.53;;;;;;;9.95;100.00;95239.13;5007404;28;20401;-77
2024/03/26 09:05:27;;;;;;;6.38;2.65;;;;;;;9.86;100.00;95246.97;4997292;28;20465;-77
2024/03/26 09:07:53;;;;;;;3.35;2.30;;;;;;;10.29;100.00;95242.06;5009381;28;20461;-76
2024/03/26 09:10:19;;;;;;;3.83;2.30;;;;;;;10.59;100.00;95245.81;4998587;28;20411;-78
2024/03/26 09:12:47;;;;;;;5.07;2.42;;;;;;;10.95;100.00;95244.91;5006609;28;20475;-77
2024/03/26 09:15:13;;;;;;;2.58;1.92;;;;;;;11.55;100.00;95239.78;5003657;28;20428;-78
2024/03/26 09:17:40;;;;;;;3.92;2.10;;;;;;;12.16;100.00;95238.78;4997975;28;20402;-77
2024/03/26 09:20:07;;;;;;;3.50;2.23;;;;;;;12.61;100.00;95230.44;5004238;28;20884;-77
2024/03/26 09:22:34;;;;;;;2.87;1.67;;;;;;;13.04;100.00;95233.72;5004759;28;20911;-76
2024/03/26 09:25:00;;;;;;;2.55;1.40;;;;;;;13.51;100.00;95229.16;5004408;28;20402;-77
2024/03/26 09:27:27;;;;;;;2.50;1.60;;;;;;;13.76;100.00;95223.97;5001643;28;20437;-77
2024/03/26 09:29:53;;;;;;;2.08;1.50;;;;;;;13.85;100.00;95216.72;5003176;28;20913;-77
2024/03/26 09:32:19;;;;;;;1.60;1.50;;;;;;;13.81;100.00;95213.16;5001900;28;20408;-78
2024/03/26 09:34:47;;;;;;;2.15;1.40;;;;;;;13.75;100.00;95204.63;5000855;28;20767;-76
2024/03/26 09:37:13;;;;;;;4.38;1.50;;;;;;;13.76;100.00;95213.34;5003571;28;20419;-77
2024/03/26 09:39:39;;;;;;;1.50;1.27;;;;;;;13.84;100.00;95209.84;5006240;28;20488;-78
2024/03/26 09:42:08;;;;;;;2.33;1.45;;;;;;;14.00;100.00;95207.38;5003969;28;20760;-78
2024/03/26 09:44:37;;;;;;;2.40;1.67;;;;;;;14.10;100.00;95194.47;5002595;28;20515;-76
2024/03/26 09:47:04;;;;;;;2.38;1.40;;;;;;;14.24;100.00;95199.50;5004272;28;20430;-77
2024/03/26 09:49:33;;;;;;;2.47;1.50;;;;;;;14.56;100.00;95195.31;5000936;28;20476;-77
2024/03/26 09:52:02;;;;;;;3.08;1.40;;;;;;;14.92;100.00;95181.28;5000300;28;20399;-78
2024/03/26 09:54:28;;;;;;;2.60;1.63;;;;;;;15.28;100.00;95172.50;5002928;28;20454;-77
2024/03/26 09:56:55;;;;;;;2.70;1.52;;;;;;;15.55;100.00;95160.41;5002970;28;20408;-77
2024/03/26 09:59:21;;;;;;;2.10;1.38;;;;;;;15.74;100.00;95156.00;5005513;28;20402;-78
2024/03/26 10:01:50;;;;;;;1.70;1.30;;;;;;;15.93;100.00;95150.06;5004837;28;20752;-79
2024/03/26 10:04:16;;;;;;;4.20;1.70;;;;;;;16.09;100.00;95145.53;5003362;28;20959;-77
2024/03/26 10:06:43;;;;;;;1.55;1.13;;;;;;;16.41;100.00;95143.72;5000413;28;20423;-77
2024/03/26 10:09:12;;;;;;;1.97;1.30;;;;;;;16.74;100.00;95140.78;5006522;28;20481;-77
2024/03/26 10:11:38;;;;;;;1.92;1.10;;;;;;;17.07;100.00;95132.38;5005892;28;20398;-77
2024/03/26 10:14:04;;;;;;;2.00;1.20;;;;;;;17.40;100.00;95127.41;4993324;28;20914;-77
2024/03/26 10:16:30;;;;;;;3.58;1.58;;;;;;;17.56;100.00;95121.25;5009522;28;20424;-77
2024/03/26 10:18:57;;;;;;;5.38;1.90;;;;;;;17.55;100.00;95119.69;5001687;28;20394;-77
2024/03/26 10:21:23;;;;;;;4.10;1.40;;;;;;;17.52;100.00;95123.84;5004266;28;20407;-78
2024/03/26 10:23:49;;;;;;;2.25;1.25;;;;;;;17.77;100.00;95109.09;5003581;28;20416;-79
2024/03/26 10:26:16;;;;;;;7.03;2.10;;;;;;;18.11;100.00;95109.38;5003283;28;20393;-78
2024/03/26 10:28:43;;;;;;;1.70;1.20;;;;;;;18.67;100.00;95114.22;5007588;28;20451;-77
2024/03/26 10:31:09;;;;;;;2.53;1.10;;;;;;;19.39;100.00;95109.59;5011383;28;20410;-78
2024/03/26 10:33:36;;;;;;;4.17;1.63;;;;;;;20.03;100.00;95097.75;4999211;28;20402;-78
2024/03/26 10:36:03;;;;;;;2.42;1.33;;;;;;;20.39;100.00;95101.63;5005355;28;20807;-77
2024/03/26 10:38:32;;;;;;;2.13;1.23;;;;;;;20.98;100.00;95096.34;5009218;28;20403;-75
2024/03/26 10:41:02;;;;;;;3.83;1.20;;;;;;;21.64;100.00;95089.91;5007373;28;20452;-76
2024/03/26 10:43:30;;;;;;;2.65;1.25;;;;;;;22.38;100.00;95086.69;5004887;28;20400;-76
2024/03/26 10:45:57;;;;;;;1.58;1.05;;;;;;;22.90;100.00;95073.66;4999289;28;20421;-77
2024/03/26 10:48:24;;;;;;;5.88;2.25;;;;;;;22.94;100.00;95071.72;5003722;28;20422;-76
2024/03/26 10:50:52;;;;;;;4.33;1.40;;;;;;;23.16;100.00;95073.25;5009756;28;20458;-76
2024/03/26 10:53:22;;;;;;;4.40;1.53;;;;;;;23.39;100.00;95070.88;4999812;28;20392;-76
2024/03/26 10:55:49;;;;;;;4.70;1.20;;;;;;;23.58;100.00;95063.56;5006508;28;20398;-76
2024/03/26 10:58:17;;;;;;;3.47;1.80;;;;;;;23.63;100.00;95063.13;5010208;28;20406;-75
2024/03/26 11:00:47;;;;;;;3.63;1.52;;;;;;;23.48;100.00;95065.13;5005994;28;20421;-75
2024/03/26 11:03:15;;;;;;;3.38;1.42;;;;;;;23.21;100.00;95064.00;5010780;28;20410;-75
2024/03/26 11:05:41;;;;;;;3.30;1.30;;;;;;;23.22;100.00;95060.91;4999210;28;20457;-76
2024/03/26 11:08:15;;;;;;;2.17;1.17;;;;;;;23.58;100.00;95055.44;5013647;28;20453;-75
2024/03/26 11:10:57;;;;;;;4.22;1.40;;;;;;;23.97;100.00;95044.50;5006415;28;20403;-76
2024/03/26 11:13:27;;;;;;;2.75;1.40;;;;;;;24.02;100.00;95044.84;5000060;28;20464;-76
2024/03/26 11:15:54;;;;;;;3.78;1.50;;;;;;;23.85;100.00;95037.59;5011112;28;20453;-76
2024/03/26 11:18:28;;;;;;;4.50;1.55;;;;;;;24.15;100.00;95034.34;4995487;28;20749;-75
2024/03/26 11:20:57;;;;;;;2.30;1.33;;;;;;;24.48;100.00;95027.59;4995127;28;20899;-75
2024/03/26 11:23:23;;;;;;;1.67;1.13;;;;;;;24.95;100.00;95018.72;5002293;28;20473;-76